• Member Statistics

    16,628
    Total Members
    7,904
    Most Online
    Javon75
    Newest Member
    Javon75
    Joined
Hoosier

February 14-16 Winter Storm Part 2

Recommended Posts

8 minutes ago, Chicago Storm said:

Cook Co crusher...

bac57e0020c9da27117432d8d3150ff4.jpg


.

triple team??

1)system snow

2)old main band almost north-south

3)smaller bands moving in from the east?

no wonder Aleking getting 3+ inch per hour rates

  • Like 1

Share this post


Link to post
Share on other sites
21 minutes ago, A-L-E-K said:

One inch last 15 mins, did my best p sure legit or close as I can get

Blowing becoming an issue for my spot, came up with 1.3 in last 20 mins which is probably a lil high 

Share this post


Link to post
Share on other sites
Just now, A-L-E-K said:

Blowing becoming an issue for my spot, came up with 1.3 in last 20 mins which is probably a lil high 

To high to low who cares the 18” monster has summoned you again. 

Share this post


Link to post
Share on other sites

KORD 160151Z 35014KT 1/2SM R10L/4500V6000FT SN BLSN VV007 M14/M17 A3008 RMK AO2 SLP204 SNINCR 1/18 P0003 T11391167

Share this post


Link to post
Share on other sites
13 minutes ago, A-L-E-K said:

P sure heavier now, gonna measure soon 

20210215-193852.jpg

Remember this when you have precip issues next December.lol

  • Like 1
  • Haha 3

Share this post


Link to post
Share on other sites
1 minute ago, A-L-E-K said:

Blowing becoming an issue for my spot, came up with 1.3 in last 20 mins which is probably a lil high 

Experiencing Alek-like rates now and feeling awful for complaining so much earlier. This is insane

Share this post


Link to post
Share on other sites

I honestly don't know what to call it here, I'd say 5" is a safe bet. Looks to be winding down pretty quick, way quicker than the midnight hault mentioned in the AFD. 4:30pm climo report had .2 QPF and no data for snowfall.

 

Got home from work and had 14"drifts behind the gate and towards backyard, shoveled a path for the dog to do its thing and had to run to the store. Windshield flash froze in about 10 minutes, glazed over again while in the store. Got back and started shoveling the drive and shovel broke. Tried to fire up the 4 wheeler and it wouldn't start, so i had a half shoveled drive and walk way which is not drifted back over.

 

I don't know why I root these things on as pissed as I was getting earlier :lol:

Share this post


Link to post
Share on other sites
Just now, Cary67 said:

Remember this when you have precip issues next December.lol

Yeah, insane number of huge hits last decade despite the zzzzz, climo and all

  • Haha 1

Share this post


Link to post
Share on other sites

KMDW 160153Z 34014KT 1/4SM R31C/1400V3500FT +SN BLSN VV005 M12/M16 A3009 RMK AO2 SLP212 PRESENT WX DRSN SNINCR 3/22 P0002 T11221156 $

  • Like 1
  • Weenie 1

Share this post


Link to post
Share on other sites
1 minute ago, Chicago Storm said:

KMDW 160153Z 34014KT 1/4SM R31C/1400V3500FT +SN BLSN VV005 M12/M16 A3009 RMK AO2 SLP212 PRESENT WX DRSN SNINCR 3/22 P0002 T11221156 $

Midway saying 30 inch depth or bust

 

Share this post


Link to post
Share on other sites

MDW has had SNINCR of 2, 2 and 3 over the past 3 hours.

At minimum, MDW has received 5.5" in the past 3 hours.

  • Like 1

Share this post


Link to post
Share on other sites

0745 PM HEAVY SNOW 3 SW MIDWAY AIRPORT 41.75N 87.79W  

02/15/2021 M8.9 INCH COOK IL OFFICIAL NWS OBS    

EVENT TOTAL AS OF 7:45 PM CST. 2.9 INCHES OF   NEW SNOW IN THE PAST 1 HOUR AND 45 MINUTES.

  • Like 1

Share this post


Link to post
Share on other sites
5 minutes ago, Chicago Storm said:

KMDW 160153Z 34014KT 1/4SM R31C/1400V3500FT +SN BLSN VV005 M12/M16 A3009 RMK AO2 SLP212 PRESENT WX DRSN SNINCR 3/22 P0002 T11221156 $

Officially nutty 

  • Like 1

Share this post


Link to post
Share on other sites
2 minutes ago, Ottawa Blizzard said:

Hoping for 8" at least out of this one. 

RADAR looks good... I think we can probably pull off 8"+ assuming the dry slot remains south of us. Time will tell.

Share this post


Link to post
Share on other sites

Join the conversation

You can post now and register later. If you have an account, sign in now to post with your account.

Guest
Reply to this topic...

×   Pasted as rich text.   Paste as plain text instead

  Only 75 emoji are allowed.

×   Your link has been automatically embedded.   Display as a link instead

×   Your previous content has been restored.   Clear editor

×   You cannot paste images directly. Upload or insert images from URL.

Loading...

  • Recently Browsing   0 members

    No registered users viewing this page.